Time;durP1;ratioP1;P1;durP2;ratioP2;P2;SDS_P1;SDS_P2;PMS_P1;PMS_P2;Temp;Humidity;BMP_temperature;BMP_pressure;BME280_temperature;BME280_humidity;BME280_pressure;Samples;Min_cycle;Max_cycle;Signal;HPM_P1;HPM_P2
2021/01/09 00:00:41;;;;;;;12.43;9.60;;;;;;;;;;5038289;28;20239;-60
2021/01/09 00:03:07;;;;;;;12.87;8.70;;;;;;;;;;5037298;28;20475;-60
2021/01/09 00:05:32;;;;;;;10.13;8.47;;;;;;;;;;5041764;28;20667;-60
2021/01/09 00:07:57;;;;;;;11.20;9.00;;;;;;;;;;5022552;28;20249;-59
2021/01/09 00:10:22;;;;;;;12.07;9.20;;;;;;;;;;5022932;28;20223;-60
2021/01/09 00:12:48;;;;;;;9.77;8.77;;;;;;;;;;5021506;28;20222;-59
2021/01/09 00:15:13;;;;;;;11.23;8.70;;;;;;;;;;5022307;28;20265;-60
2021/01/09 00:17:38;;;;;;;11.63;8.20;;;;;;;;;;5022251;28;20652;-60
2021/01/09 00:20:14;;;;;;;9.27;7.77;;;;;;;;;;5037527;28;20295;-60
2021/01/09 00:22:40;;;;;;;10.93;8.50;;;;;;;;;;5054583;28;20218;-60
2021/01/09 00:25:07;;;;;;;10.00;7.37;;;;;;;;;;5021721;28;20554;-60
2021/01/09 00:27:32;;;;;;;8.67;7.40;;;;;;;;;;5022205;28;20220;-60
2021/01/09 00:29:58;;;;;;;7.40;6.60;;;;;;;;;;5021503;28;20958;-60
2021/01/09 00:32:23;;;;;;;7.87;6.60;;;;;;;;;;5021303;28;20235;-59
2021/01/09 00:34:48;;;;;;;8.10;6.80;;;;;;;;;;5021182;28;20214;-60
2021/01/09 00:37:14;;;;;;;10.13;7.97;;;;;;;;;;5020191;28;20243;-60
2021/01/09 00:39:39;;;;;;;8.40;7.20;;;;;;;;;;5021323;28;20210;-60
2021/01/09 00:42:04;;;;;;;9.20;7.33;;;;;;;;;;5021431;28;20210;-59
2021/01/09 00:44:29;;;;;;;6.80;5.93;;;;;;;;;;5021729;28;20618;-60
2021/01/09 00:46:56;;;;;;;7.47;6.67;;;;;;;;;;5020926;28;20259;-60
2021/01/09 00:49:21;;;;;;;8.40;6.80;;;;;;;;;;5021105;28;20213;-59
2021/01/09 00:51:47;;;;;;;9.80;7.10;;;;;;;;;;5003197;28;20517;-60
2021/01/09 00:54:12;;;;;;;9.97;7.60;;;;;;;;;;5021684;28;20233;-59
2021/01/09 00:56:37;;;;;;;10.17;7.40;;;;;;;;;;5020491;28;20260;-60
2021/01/09 00:59:02;;;;;;;9.80;8.40;;;;;;;;;;5021198;28;20228;-59
2021/01/09 01:01:28;;;;;;;18.33;8.73;;;;;;;;;;5021255;28;20237;-59
2021/01/09 01:03:53;;;;;;;8.43;6.60;;;;;;;;;;5020882;28;20254;-59
2021/01/09 01:06:26;;;;;;;8.50;7.23;;;;;;;;;;5020934;28;20300;-59
2021/01/09 01:08:51;;;;;;;7.87;6.30;;;;;;;;;;5021454;28;20228;-60
2021/01/09 01:11:30;;;;;;;9.20;7.57;;;;;;;;;;5021141;28;20578;-59
2021/01/09 01:13:56;;;;;;;9.53;7.13;;;;;;;;;;5021085;28;20224;-60
2021/01/09 01:16:22;;;;;;;10.30;7.27;;;;;;;;;;5021200;28;20944;-60
2021/01/09 01:18:47;;;;;;;9.73;7.47;;;;;;;;;;5021002;28;20475;-60
2021/01/09 01:21:13;;;;;;;9.00;7.27;;;;;;;;;;5020680;28;20223;-59
2021/01/09 01:23:38;;;;;;;8.80;7.10;;;;;;;;;;5020676;28;20221;-60
2021/01/09 01:26:03;;;;;;;9.43;7.30;;;;;;;;;;5019260;28;20250;-59
2021/01/09 01:28:29;;;;;;;8.90;7.20;;;;;;;;;;5020548;28;20283;-59
2021/01/09 01:30:54;;;;;;;8.70;7.40;;;;;;;;;;5020270;28;20287;-60
2021/01/09 01:33:19;;;;;;;8.77;6.83;;;;;;;;;;5020397;28;20220;-58
2021/01/09 01:35:45;;;;;;;9.33;7.83;;;;;;;;;;5019920;28;20245;-60
2021/01/09 01:38:10;;;;;;;7.87;6.73;;;;;;;;;;5019957;28;20241;-59
2021/01/09 01:40:35;;;;;;;8.57;6.83;;;;;;;;;;5020079;28;20225;-59
2021/01/09 01:43:00;;;;;;;8.30;6.73;;;;;;;;;;5020119;28;20228;-59
2021/01/09 01:45:26;;;;;;;8.27;7.40;;;;;;;;;;5020484;28;20218;-59
2021/01/09 01:47:51;;;;;;;9.20;7.30;;;;;;;;;;5020303;28;20720;-59
2021/01/09 01:50:16;;;;;;;7.97;6.80;;;;;;;;;;5019932;28;20218;-60
2021/01/09 01:52:42;;;;;;;10.37;7.57;;;;;;;;;;5020183;28;20286;-59
2021/01/09 01:55:09;;;;;;;10.00;7.83;;;;;;;;;;5019087;28;20218;-59
2021/01/09 01:57:34;;;;;;;11.40;8.40;;;;;;;;;;5021214;28;20223;-59
2021/01/09 02:00:00;;;;;;;9.30;7.37;;;;;;;;;;5020574;28;20472;-59
2021/01/09 02:02:25;;;;;;;9.60;8.40;;;;;;;;;;5020138;28;20218;-59
2021/01/09 02:04:57;;;;;;;9.90;7.83;;;;;;;;;;5019541;28;20607;-60
2021/01/09 02:07:26;;;;;;;7.73;6.57;;;;;;;;;;5019837;28;20228;-59
2021/01/09 02:09:52;;;;;;;8.73;7.30;;;;;;;;;;5019300;28;20470;-59
2021/01/09 02:12:23;;;;;;;8.47;6.97;;;;;;;;;;5018834;28;21081;-59
2021/01/09 02:14:50;;;;;;;9.00;6.90;;;;;;;;;;5017541;28;20480;-61
2021/01/09 02:17:17;;;;;;;7.40;6.50;;;;;;;;;;5018153;28;20951;-60
2021/01/09 02:19:44;;;;;;;7.30;6.50;;;;;;;;;;5017740;28;20467;-59
2021/01/09 02:22:16;;;;;;;7.43;6.73;;;;;;;;;;5018682;28;20537;-59
2021/01/09 02:24:42;;;;;;;8.40;6.73;;;;;;;;;;5018895;28;20525;-60
2021/01/09 02:27:08;;;;;;;8.67;7.67;;;;;;;;;;5016745;28;20820;-59
2021/01/09 02:29:35;;;;;;;9.70;7.67;;;;;;;;;;5002057;28;20459;-59
2021/01/09 02:32:05;;;;;;;7.80;7.00;;;;;;;;;;5017471;28;20495;-60
2021/01/09 02:34:35;;;;;;;10.23;7.27;;;;;;;;;;5018577;28;20452;-59
2021/01/09 02:37:01;;;;;;;10.20;7.70;;;;;;;;;;5018492;28;20462;-60
2021/01/09 02:39:26;;;;;;;7.47;5.70;;;;;;;;;;5018358;28;20746;-60
2021/01/09 02:41:52;;;;;;;9.10;6.50;;;;;;;;;;5017025;28;20661;-60
2021/01/09 02:44:17;;;;;;;8.47;7.17;;;;;;;;;;5017079;28;20230;-60
2021/01/09 02:46:42;;;;;;;9.40;7.40;;;;;;;;;;5019851;28;20218;-59
2021/01/09 02:49:08;;;;;;;10.30;7.07;;;;;;;;;;5018755;28;20225;-59
2021/01/09 02:51:34;;;;;;;8.83;7.20;;;;;;;;;;5018910;28;20634;-59
2021/01/09 02:53:59;;;;;;;8.00;5.70;;;;;;;;;;5018912;28;20229;-59
2021/01/09 02:56:24;;;;;;;8.23;5.80;;;;;;;;;;5019476;28;20237;-59
2021/01/09 02:58:49;;;;;;;10.53;6.67;;;;;;;;;;5019304;28;20230;-59
2021/01/09 03:01:15;;;;;;;6.23;5.63;;;;;;;;;;5017915;28;20233;-59
2021/01/09 03:03:40;;;;;;;7.93;6.67;;;;;;;;;;5018790;28;20214;-59
2021/01/09 03:06:05;;;;;;;8.07;6.07;;;;;;;;;;5018381;28;20232;-59
2021/01/09 03:08:30;;;;;;;9.50;7.17;;;;;;;;;;5018748;28;20210;-59
2021/01/09 03:10:56;;;;;;;8.10;5.50;;;;;;;;;;5018279;28;20245;-59
2021/01/09 03:13:21;;;;;;;7.57;6.77;;;;;;;;;;5017816;28;20646;-59
2021/01/09 03:15:46;;;;;;;6.40;5.70;;;;;;;;;;5018579;28;20598;-58
2021/01/09 03:18:11;;;;;;;8.83;6.50;;;;;;;;;;5017921;28;20273;-59
2021/01/09 03:20:37;;;;;;;9.20;6.40;;;;;;;;;;5019201;28;20223;-59
2021/01/09 03:23:02;;;;;;;7.40;6.20;;;;;;;;;;5018811;28;20229;-60
2021/01/09 03:25:27;;;;;;;9.00;7.33;;;;;;;;;;5018306;28;20600;-59
2021/01/09 03:27:52;;;;;;;8.60;7.67;;;;;;;;;;5018868;28;20213;-60
2021/01/09 03:30:18;;;;;;;10.03;7.50;;;;;;;;;;5018002;28;20213;-59
2021/01/09 03:32:43;;;;;;;10.73;7.80;;;;;;;;;;5018309;28;20226;-59
2021/01/09 03:35:09;;;;;;;8.97;7.50;;;;;;;;;;5018379;28;20281;-59
2021/01/09 03:37:35;;;;;;;8.93;7.20;;;;;;;;;;5017912;28;20228;-59
2021/01/09 03:40:00;;;;;;;9.50;7.50;;;;;;;;;;5021264;28;20484;-60
2021/01/09 03:42:25;;;;;;;9.47;8.00;;;;;;;;;;5022643;28;20243;-59
2021/01/09 03:44:50;;;;;;;11.70;8.13;;;;;;;;;;5022716;28;20660;-60
2021/01/09 03:47:16;;;;;;;11.20;8.00;;;;;;;;;;5022561;28;20273;-60
2021/01/09 03:49:41;;;;;;;9.90;8.00;;;;;;;;;;5022722;28;20210;-60
2021/01/09 03:52:06;;;;;;;10.10;8.37;;;;;;;;;;5022190;28;20259;-59
2021/01/09 03:54:31;;;;;;;9.37;8.37;;;;;;;;;;5022812;28;20236;-60
2021/01/09 03:56:57;;;;;;;11.70;9.90;;;;;;;;;;5022466;28;20253;-59
2021/01/09 03:59:22;;;;;;;10.47;8.73;;;;;;;;;;5023106;28;20660;-59
2021/01/09 04:01:47;;;;;;;11.10;9.07;;;;;;;;;;5022605;28;20309;-60
2021/01/09 04:04:13;;;;;;;12.03;8.60;;;;;;;;;;5022186;28;20227;-60
2021/01/09 04:06:38;;;;;;;11.60;8.60;;;;;;;;;;5021652;28;20229;-60
2021/01/09 04:09:04;;;;;;;10.63;7.97;;;;;;;;;;5021690;28;20535;-60
2021/01/09 04:11:29;;;;;;;9.30;7.43;;;;;;;;;;5021926;28;20252;-58
2021/01/09 04:13:55;;;;;;;10.00;7.60;;;;;;;;;;5021407;28;20251;-60
2021/01/09 04:16:21;;;;;;;8.80;6.57;;;;;;;;;;5021580;28;20287;-59
2021/01/09 04:18:46;;;;;;;9.60;7.50;;;;;;;;;;5021917;28;20460;-59
2021/01/09 04:21:11;;;;;;;10.17;7.70;;;;;;;;;;5021147;28;20247;-59
2021/01/09 04:23:36;;;;;;;7.93;6.30;;;;;;;;;;5021485;28;20637;-60
2021/01/09 04:26:02;;;;;;;7.80;6.70;;;;;;;;;;5021217;28;20230;-59
2021/01/09 04:28:27;;;;;;;10.63;7.30;;;;;;;;;;5021040;28;20295;-60
2021/01/09 04:30:52;;;;;;;7.67;6.57;;;;;;;;;;5021197;28;20227;-59
2021/01/09 04:33:17;;;;;;;7.03;5.80;;;;;;;;;;5019580;28;20268;-59
2021/01/09 04:35:43;;;;;;;8.30;7.50;;;;;;;;;;5020894;28;20369;-59
2021/01/09 04:38:08;;;;;;;7.00;6.30;;;;;;;;;;5019414;28;20218;-59
2021/01/09 04:40:35;;;;;;;8.43;6.13;;;;;;;;;;5020756;28;20678;-59
2021/01/09 04:43:01;;;;;;;6.70;6.00;;;;;;;;;;5020085;28;20217;-60
2021/01/09 04:45:26;;;;;;;8.20;6.90;;;;;;;;;;5020071;28;20466;-59
2021/01/09 04:47:51;;;;;;;8.03;6.53;;;;;;;;;;5019805;28;20241;-60
2021/01/09 04:50:16;;;;;;;7.60;6.20;;;;;;;;;;5019529;28;20221;-59
2021/01/09 04:52:42;;;;;;;8.33;6.90;;;;;;;;;;5021036;28;20214;-60
2021/01/09 04:55:08;;;;;;;8.93;6.63;;;;;;;;;;5019790;28;20213;-60
2021/01/09 04:57:33;;;;;;;10.97;7.50;;;;;;;;;;5021382;28;20215;-60
2021/01/09 04:59:59;;;;;;;9.53;7.30;;;;;;;;;;5021277;28;20796;-60
2021/01/09 05:02:25;;;;;;;10.07;8.17;;;;;;;;;;5021497;28;20212;-58
2021/01/09 05:04:51;;;;;;;10.00;7.57;;;;;;;;;;5020001;28;20232;-58
2021/01/09 05:07:16;;;;;;;9.80;7.80;;;;;;;;;;5020525;28;20460;-59
2021/01/09 05:09:43;;;;;;;7.70;6.90;;;;;;;;;;5003779;28;20210;-60
2021/01/09 05:12:09;;;;;;;8.37;7.30;;;;;;;;;;5020701;28;20217;-59
2021/01/09 05:14:34;;;;;;;9.13;6.53;;;;;;;;;;5019206;28;20965;-59
2021/01/09 05:17:00;;;;;;;7.10;6.30;;;;;;;;;;5020521;28;20460;-59
2021/01/09 05:19:29;;;;;;;7.43;6.40;;;;;;;;;;5021226;28;20368;-58
2021/01/09 05:21:56;;;;;;;7.40;6.20;;;;;;;;;;5019178;28;20577;-59
2021/01/09 05:24:22;;;;;;;7.40;5.60;;;;;;;;;;5019272;28;20448;-59
2021/01/09 05:26:48;;;;;;;7.23;5.90;;;;;;;;;;5019657;28;20538;-59
2021/01/09 05:29:14;;;;;;;7.27;6.17;;;;;;;;;;5017969;28;20496;-59
2021/01/09 05:31:40;;;;;;;7.07;5.20;;;;;;;;;;5032239;28;20234;-59
2021/01/09 05:34:05;;;;;;;6.30;5.70;;;;;;;;;;4999940;28;20541;-59
2021/01/09 05:36:31;;;;;;;6.40;5.70;;;;;;;;;;5000151;28;20261;-59
2021/01/09 05:38:56;;;;;;;7.30;6.13;;;;;;;;;;5012266;28;20218;-59
2021/01/09 05:41:23;;;;;;;6.00;5.13;;;;;;;;;;5020025;28;20285;-59
2021/01/09 05:43:59;;;;;;;7.93;6.10;;;;;;;;;;5019884;28;20215;-59
2021/01/09 05:46:25;;;;;;;7.03;5.63;;;;;;;;;;5020212;28;20527;-59
2021/01/09 05:48:51;;;;;;;5.93;4.97;;;;;;;;;;5019628;28;20484;-60
2021/01/09 05:51:18;;;;;;;7.47;5.70;;;;;;;;;;5019575;28;20228;-59
2021/01/09 05:53:45;;;;;;;6.50;5.10;;;;;;;;;;5019959;28;20468;-59
2021/01/09 05:56:12;;;;;;;5.90;4.93;;;;;;;;;;5019249;28;20485;-59
2021/01/09 05:58:38;;;;;;;7.53;6.03;;;;;;;;;;5019858;28;20452;-59
2021/01/09 06:01:12;;;;;;;6.17;5.47;;;;;;;;;;5018559;28;20552;-60
2021/01/09 06:03:52;;;;;;;7.73;6.27;;;;;;;;;;5020031;28;20478;-59
2021/01/09 06:06:26;;;;;;;7.73;5.80;;;;;;;;;;5018904;28;20458;-59
2021/01/09 06:09:09;;;;;;;7.13;5.50;;;;;;;;;;5019604;28;20971;-59
2021/01/09 06:11:40;;;;;;;7.50;5.73;;;;;;;;;;5019896;28;20451;-58
2021/01/09 06:14:07;;;;;;;8.07;5.17;;;;;;;;;;5019487;28;20477;-60
2021/01/09 06:16:35;;;;;;;9.00;7.27;;;;;;;;;;5017988;28;20508;-60
2021/01/09 06:19:01;;;;;;;6.63;5.27;;;;;;;;;;5019215;28;20469;-59
2021/01/09 06:21:27;;;;;;;9.47;5.93;;;;;;;;;;5018696;28;20470;-59
2021/01/09 06:23:54;;;;;;;6.33;5.27;;;;;;;;;;5018399;28;20658;-59
2021/01/09 06:26:20;;;;;;;7.47;5.30;;;;;;;;;;5018220;28;20478;-59
2021/01/09 06:28:47;;;;;;;7.40;5.63;;;;;;;;;;5018479;28;20786;-59
2021/01/09 06:31:20;;;;;;;8.60;6.80;;;;;;;;;;5017807;28;20274;-59
2021/01/09 06:33:50;;;;;;;8.77;5.60;;;;;;;;;;5019145;28;20496;-60
2021/01/09 06:36:17;;;;;;;10.70;7.00;;;;;;;;;;5018769;28;20590;-60
2021/01/09 06:38:43;;;;;;;6.57;5.63;;;;;;;;;;5018882;28;20457;-59
2021/01/09 06:41:15;;;;;;;8.90;6.77;;;;;;;;;;5017506;28;20458;-60
2021/01/09 06:43:43;;;;;;;6.00;5.40;;;;;;;;;;5018983;28;20450;-59
2021/01/09 06:46:10;;;;;;;6.30;5.13;;;;;;;;;;5019181;28;20918;-59
2021/01/09 06:48:36;;;;;;;6.73;5.10;;;;;;;;;;5018504;28;20433;-59
2021/01/09 06:51:01;;;;;;;6.07;5.17;;;;;;;;;;5018295;28;20917;-59
2021/01/09 06:53:26;;;;;;;6.10;5.07;;;;;;;;;;5017712;28;20217;-59
2021/01/09 06:55:52;;;;;;;6.83;5.97;;;;;;;;;;5018082;28;20242;-59
2021/01/09 06:58:24;;;;;;;6.30;4.77;;;;;;;;;;5018083;28;20369;-59
2021/01/09 07:00:49;;;;;;;6.87;5.63;;;;;;;;;;5017776;28;20222;-58
2021/01/09 07:03:16;;;;;;;7.17;5.63;;;;;;;;;;5018492;28;20472;-58
2021/01/09 07:05:47;;;;;;;4.50;3.80;;;;;;;;;;5017752;28;20218;-60
2021/01/09 07:08:23;;;;;;;5.60;4.63;;;;;;;;;;5018227;28;20457;-60
2021/01/09 07:10:59;;;;;;;6.33;4.63;;;;;;;;;;5015804;28;20572;-60
2021/01/09 07:13:24;;;;;;;6.60;5.30;;;;;;;;;;5017273;28;20507;-61
2021/01/09 07:16:12;;;;;;;6.17;5.40;;;;;;;;;;5016898;28;20458;-60
2021/01/09 07:18:43;;;;;;;5.67;5.00;;;;;;;;;;4999693;28;20736;-60
2021/01/09 07:21:11;;;;;;;5.07;4.57;;;;;;;;;;5017552;28;20454;-59
2021/01/09 07:23:37;;;;;;;5.07;4.40;;;;;;;;;;5016034;28;20464;-59
2021/01/09 07:26:03;;;;;;;5.53;4.77;;;;;;;;;;5017859;28;20457;-59
2021/01/09 07:28:33;;;;;;;4.23;3.83;;;;;;;;;;5017218;28;20473;-59
2021/01/09 07:31:03;;;;;;;4.50;4.10;;;;;;;;;;5017396;28;20449;-59
2021/01/09 07:33:30;;;;;;;5.63;4.70;;;;;;;;;;5017630;28;20536;-61
2021/01/09 07:35:56;;;;;;;5.63;4.70;;;;;;;;;;5018208;28;20454;-59
2021/01/09 07:38:21;;;;;;;4.93;4.40;;;;;;;;;;5018097;28;20460;-59
2021/01/09 07:40:55;;;;;;;5.57;4.90;;;;;;;;;;5016956;28;20266;-59
2021/01/09 07:43:41;;;;;;;7.90;6.53;;;;;;;;;;5017681;28;20305;-61
2021/01/09 07:46:26;;;;;;;7.13;5.10;;;;;;;;;;5017179;28;20496;-61
2021/01/09 07:48:52;;;;;;;8.70;6.80;;;;;;;;;;5018226;28;20467;-60
2021/01/09 07:51:18;;;;;;;7.13;5.97;;;;;;;;;;5017946;28;20489;-60
2021/01/09 07:53:45;;;;;;;7.93;5.70;;;;;;;;;;5018225;28;20468;-61
2021/01/09 07:56:11;;;;;;;6.33;5.20;;;;;;;;;;5017358;28;20221;-61
2021/01/09 07:58:45;;;;;;;8.40;6.60;;;;;;;;;;5018956;28;20522;-59
2021/01/09 08:01:11;;;;;;;9.07;7.37;;;;;;;;;;5018119;28;20232;-61
2021/01/09 08:03:39;;;;;;;10.70;7.77;;;;;;;;;;5018165;28;20470;-60
2021/01/09 08:06:05;;;;;;;10.67;8.10;;;;;;;;;;5018178;28;20226;-62
2021/01/09 08:08:30;;;;;;;9.60;6.63;;;;;;;;;;5017664;28;20468;-60
2021/01/09 08:10:56;;;;;;;10.17;7.07;;;;;;;;;;5017349;28;20239;-59
2021/01/09 08:13:22;;;;;;;8.23;6.50;;;;;;;;;;5018214;28;20220;-61
2021/01/09 08:15:47;;;;;;;9.10;6.80;;;;;;;;;;5018010;28;20334;-60
2021/01/09 08:18:13;;;;;;;6.87;6.17;;;;;;;;;;5017802;28;20240;-62
2021/01/09 08:20:38;;;;;;;9.57;7.10;;;;;;;;;;5018395;28;20221;-60
2021/01/09 08:23:05;;;;;;;8.07;7.00;;;;;;;;;;5017524;28;20543;-61
2021/01/09 08:25:32;;;;;;;10.50;8.83;;;;;;;;;;5019653;28;20264;-59
2021/01/09 08:28:00;;;;;;;8.50;6.77;;;;;;;;;;5021318;28;20475;-60
2021/01/09 08:30:30;;;;;;;8.83;7.57;;;;;;;;;;5020618;28;20463;-59
2021/01/09 08:33:11;;;;;;;10.93;8.43;;;;;;;;;;5021516;28;20457;-59
2021/01/09 08:35:39;;;;;;;9.83;7.53;;;;;;;;;;5021358;28;20507;-60
2021/01/09 08:38:05;;;;;;;9.60;8.20;;;;;;;;;;5021708;28;20453;-60
2021/01/09 08:40:31;;;;;;;8.73;7.53;;;;;;;;;;5020361;28;20986;-60
2021/01/09 08:43:06;;;;;;;7.83;7.00;;;;;;;;;;5019108;28;20467;-60
2021/01/09 08:45:45;;;;;;;8.80;7.67;;;;;;;;;;5053233;28;20491;-60
2021/01/09 08:48:19;;;;;;;9.60;7.10;;;;;;;;;;5029863;28;20463;-60
2021/01/09 08:50:48;;;;;;;8.83;7.27;;;;;;;;;;5027431;28;20489;-60
2021/01/09 08:53:14;;;;;;;9.37;7.30;;;;;;;;;;5032238;28;20471;-60
2021/01/09 08:55:40;;;;;;;7.70;6.57;;;;;;;;;;5034385;28;20524;-60
2021/01/09 08:58:11;;;;;;;8.73;6.43;;;;;;;;;;5030734;28;20464;-60
2021/01/09 09:00:36;;;;;;;10.27;7.53;;;;;;;;;;5025721;28;20230;-61
2021/01/09 09:03:02;;;;;;;10.93;8.73;;;;;;;;;;5030905;28;20468;-59
2021/01/09 09:05:27;;;;;;;8.60;7.20;;;;;;;;;;5033053;28;20235;-61
2021/01/09 09:07:55;;;;;;;9.70;7.93;;;;;;;;;;5028800;28;20233;-60
2021/01/09 09:10:23;;;;;;;13.50;8.30;;;;;;;;;;5026336;28;20229;-60
2021/01/09 09:12:48;;;;;;;9.30;7.43;;;;;;;;;;5039389;28;20455;-60
2021/01/09 09:15:14;;;;;;;14.13;8.17;;;;;;;;;;5027554;28;20474;-61
2021/01/09 09:17:40;;;;;;;11.43;8.10;;;;;;;;;;5034346;28;20226;-60
2021/01/09 09:20:05;;;;;;;14.00;8.50;;;;;;;;;;5027382;28;20463;-59
2021/01/09 09:22:31;;;;;;;18.63;11.10;;;;;;;;;;5031065;28;20233;-60
2021/01/09 09:24:57;;;;;;;126.87;56.23;;;;;;;;;;5033871;28;20466;-60
2021/01/09 09:27:31;;;;;;;73.43;36.13;;;;;;;;;;5028300;28;20563;-60
2021/01/09 09:30:07;;;;;;;39.57;26.67;;;;;;;;;;5026327;28;20991;-59
2021/01/09 09:32:32;;;;;;;19.50;12.30;;;;;;;;;;5029743;28;20460;-60
2021/01/09 09:34:57;;;;;;;14.20;10.13;;;;;;;;;;5033949;28;20496;-59
2021/01/09 09:37:34;;;;;;;16.07;10.30;;;;;;;;;;5031122;28;20227;-59
2021/01/09 09:39:59;;;;;;;17.33;9.70;;;;;;;;;;5025405;28;20220;-60
2021/01/09 09:42:25;;;;;;;13.30;8.83;;;;;;;;;;5028469;28;20866;-60
2021/01/09 09:44:51;;;;;;;16.93;9.50;;;;;;;;;;5023789;28;20239;-60
2021/01/09 09:47:24;;;;;;;14.30;8.90;;;;;;;;;;5028176;28;20546;-60
2021/01/09 09:49:49;;;;;;;16.03;8.97;;;;;;;;;;5023290;28;20221;-77
2021/01/09 09:52:21;;;;;;;12.03;8.00;;;;;;;;;;5042943;28;20517;-75
2021/01/09 09:54:47;;;;;;;13.57;8.93;;;;;;;;;;5022112;28;20225;-75
2021/01/09 09:57:22;;;;;;;14.63;9.37;;;;;;;;;;5022768;28;20458;-74
2021/01/09 10:00:06;;;;;;;13.10;7.87;;;;;;;;;;5012637;28;20460;-76
2021/01/09 10:02:31;;;;;;;12.60;8.70;;;;;;;;;;5023894;28;20457;-73
2021/01/09 10:04:56;;;;;;;14.10;9.90;;;;;;;;;;5025286;28;20541;-74
2021/01/09 10:07:23;;;;;;;16.43;9.30;;;;;;;;;;5031610;28;20222;-77
2021/01/09 10:09:48;;;;;;;13.67;8.90;;;;;;;;;;5027652;28;20694;-75
2021/01/09 10:12:14;;;;;;;13.50;8.30;;;;;;;;;;5022610;28;20520;-75
2021/01/09 10:14:40;;;;;;;15.10;9.23;;;;;;;;;;5027349;28;20234;-78
2021/01/09 10:17:06;;;;;;;16.07;10.40;;;;;;;;;;5029952;28;21151;-74
2021/01/09 10:19:31;;;;;;;14.63;9.60;;;;;;;;;;5026179;28;20458;-75
2021/01/09 10:21:56;;;;;;;17.23;11.73;;;;;;;;;;5022128;28;20318;-75
2021/01/09 10:24:21;;;;;;;14.80;10.70;;;;;;;;;;5028280;28;20208;-75
2021/01/09 10:26:47;;;;;;;18.07;11.33;;;;;;;;;;5029353;28;20257;-71
2021/01/09 10:29:12;;;;;;;16.40;11.17;;;;;;;;;;5019654;28;20289;-74
2021/01/09 10:31:39;;;;;;;27.73;14.80;;;;;;;;;;5029585;28;20243;-73
2021/01/09 10:34:06;;;;;;;23.57;14.40;;;;;;;;;;5022465;28;20255;-74
2021/01/09 10:36:33;;;;;;;14.83;10.93;;;;;;;;;;5022169;28;20456;-73
2021/01/09 10:38:58;;;;;;;16.77;11.30;;;;;;;;;;5010100;28;20461;-74
2021/01/09 10:41:24;;;;;;;21.57;12.47;;;;;;;;;;5024592;28;20465;-71
2021/01/09 10:43:50;;;;;;;23.67;11.33;;;;;;;;;;5030599;28;20310;-71
2021/01/09 10:46:31;;;;;;;18.00;11.40;;;;;;;;;;5028362;28;20220;-71
2021/01/09 10:48:56;;;;;;;20.20;10.93;;;;;;;;;;5010800;28;20540;-69
2021/01/09 10:51:23;;;;;;;18.57;10.37;;;;;;;;;;5024754;28;20587;-71
2021/01/09 10:53:49;;;;;;;17.03;10.20;;;;;;;;;;5030445;28;20553;-69
2021/01/09 10:56:14;;;;;;;14.73;9.83;;;;;;;;;;5028169;28;20460;-69
2021/01/09 10:58:40;;;;;;;21.90;11.70;;;;;;;;;;5023746;28;20235;-72
2021/01/09 11:01:06;;;;;;;16.13;11.43;;;;;;;;;;5024669;28;20255;-73
2021/01/09 11:03:31;;;;;;;18.23;11.43;;;;;;;;;;5029880;28;20269;-71
2021/01/09 11:05:57;;;;;;;25.17;10.47;;;;;;;;;;5025458;28;20297;-72
2021/01/09 11:08:22;;;;;;;15.37;10.27;;;;;;;;;;5021282;28;20586;-74
2021/01/09 11:10:48;;;;;;;16.07;10.10;;;;;;;;;;5024326;28;20291;-70
2021/01/09 11:13:13;;;;;;;15.83;11.13;;;;;;;;;;5028429;28;20275;-69
2021/01/09 11:15:49;;;;;;;16.70;10.47;;;;;;;;;;5025552;28;20223;-71
2021/01/09 11:18:15;;;;;;;18.10;9.80;;;;;;;;;;5017049;28;20737;-74
2021/01/09 11:20:47;;;;;;;13.20;9.77;;;;;;;;;;5025707;28;20475;-73
2021/01/09 11:23:13;;;;;;;14.13;9.77;;;;;;;;;;5022169;28;20466;-72
2021/01/09 11:25:41;;;;;;;17.80;10.70;;;;;;;;;;5024544;28;20457;-70
2021/01/09 11:28:07;;;;;;;18.10;10.63;;;;;;;;;;5029154;28;20961;-73
2021/01/09 11:30:32;;;;;;;16.43;11.13;;;;;;;;;;5026418;28;20475;-71
2021/01/09 11:32:57;;;;;;;15.43;10.63;;;;;;;;;;5023216;28;20256;-73
2021/01/09 11:35:23;;;;;;;18.07;12.30;;;;;;;;;;5026179;28;20217;-72
2021/01/09 11:37:48;;;;;;;18.80;11.70;;;;;;;;;;5020857;28;20248;-71
2021/01/09 11:40:13;;;;;;;17.37;10.73;;;;;;;;;;5023609;28;20243;-74
2021/01/09 11:42:38;;;;;;;16.50;11.57;;;;;;;;;;5029458;28;20225;-71
2021/01/09 11:45:04;;;;;;;16.80;10.97;;;;;;;;;;5026140;28;20661;-71
2021/01/09 11:47:29;;;;;;;22.20;12.37;;;;;;;;;;5017579;28;20231;-73
2021/01/09 11:49:55;;;;;;;15.83;11.67;;;;;;;;;;5027270;28;20320;-70
2021/01/09 11:52:20;;;;;;;13.83;10.60;;;;;;;;;;5026020;28;20663;-70
2021/01/09 11:54:45;;;;;;;18.03;11.03;;;;;;;;;;5022574;28;20246;-75
2021/01/09 11:57:10;;;;;;;14.73;11.40;;;;;;;;;;5008722;28;20221;-73
2021/01/09 11:59:37;;;;;;;15.37;10.90;;;;;;;;;;5021906;28;20293;-73
2021/01/09 12:02:02;;;;;;;17.33;10.47;;;;;;;;;;5028051;28;20223;-75
2021/01/09 12:04:27;;;;;;;15.20;10.03;;;;;;;;;;5032585;28;20618;-75
2021/01/09 12:06:57;;;;;;;12.60;9.87;;;;;;;;;;5027124;28;20229;-62
2021/01/09 12:09:23;;;;;;;11.37;10.10;;;;;;;;;;5026035;28;20269;-61
2021/01/09 12:11:48;;;;;;;13.77;10.67;;;;;;;;;;5032581;28;20592;-61
2021/01/09 12:14:14;;;;;;;13.30;9.20;;;;;;;;;;5031209;28;20662;-60
2021/01/09 12:16:39;;;;;;;13.27;10.33;;;;;;;;;;5032002;28;20229;-60
2021/01/09 12:19:04;;;;;;;12.37;9.23;;;;;;;;;;5033824;28;20229;-60
2021/01/09 12:21:30;;;;;;;13.13;9.27;;;;;;;;;;5027242;28;20287;-60
2021/01/09 12:23:56;;;;;;;12.30;10.50;;;;;;;;;;5025507;28;20658;-60
2021/01/09 12:26:21;;;;;;;14.53;10.50;;;;;;;;;;5033265;28;20705;-60
2021/01/09 12:28:47;;;;;;;12.20;8.53;;;;;;;;;;5032624;28;20468;-61
2021/01/09 12:31:12;;;;;;;13.53;9.60;;;;;;;;;;5027473;28;20292;-61
2021/01/09 12:33:39;;;;;;;17.90;9.87;;;;;;;;;;5026851;28;20301;-61
2021/01/09 12:36:05;;;;;;;13.23;10.03;;;;;;;;;;5030169;28;20218;-61
2021/01/09 12:38:30;;;;;;;12.70;9.80;;;;;;;;;;5032731;28;20515;-61
2021/01/09 12:40:55;;;;;;;13.03;9.43;;;;;;;;;;5019310;28;20568;-61
2021/01/09 12:43:21;;;;;;;13.03;10.17;;;;;;;;;;5031259;28;20223;-60
2021/01/09 12:45:46;;;;;;;12.87;9.20;;;;;;;;;;5020132;28;20401;-60
2021/01/09 12:48:11;;;;;;;14.07;10.20;;;;;;;;;;5025758;28;20215;-60
2021/01/09 12:50:43;;;;;;;15.87;10.40;;;;;;;;;;5031745;28;20220;-60
2021/01/09 12:53:08;;;;;;;15.30;11.23;;;;;;;;;;5022696;28;20260;-60
2021/01/09 12:55:36;;;;;;;14.67;9.93;;;;;;;;;;5037813;28;20468;-61
2021/01/09 12:58:01;;;;;;;17.87;11.60;;;;;;;;;;5027141;28;20226;-61
2021/01/09 13:00:26;;;;;;;18.43;10.60;;;;;;;;;;5032216;28;20468;-60
2021/01/09 13:02:51;;;;;;;14.83;9.50;;;;;;;;;;5034732;28;20253;-60
2021/01/09 13:05:17;;;;;;;15.40;9.80;;;;;;;;;;5030830;28;20277;-61
2021/01/09 13:07:42;;;;;;;16.03;11.47;;;;;;;;;;5033610;28;20301;-60
2021/01/09 13:10:08;;;;;;;16.07;11.07;;;;;;;;;;5028029;28;20221;-61
2021/01/09 13:12:33;;;;;;;16.40;10.37;;;;;;;;;;5026481;28;20559;-61
2021/01/09 13:14:58;;;;;;;18.00;11.33;;;;;;;;;;5033288;28;20328;-60
2021/01/09 13:17:23;;;;;;;18.70;11.50;;;;;;;;;;5033163;28;20233;-61
2021/01/09 13:19:49;;;;;;;18.53;11.83;;;;;;;;;;5024906;28;20225;-61
2021/01/09 13:22:15;;;;;;;17.97;12.70;;;;;;;;;;5031802;28;20225;-61
2021/01/09 13:24:40;;;;;;;20.27;15.23;;;;;;;;;;5026393;28;20231;-60
2021/01/09 13:27:05;;;;;;;25.10;14.10;;;;;;;;;;5028036;28;20229;-61
2021/01/09 13:29:30;;;;;;;22.30;15.40;;;;;;;;;;5022936;28;20306;-59
2021/01/09 13:31:57;;;;;;;25.50;15.47;;;;;;;;;;5031969;28;20237;-60
2021/01/09 13:34:22;;;;;;;25.87;16.90;;;;;;;;;;5025895;28;20221;-60
2021/01/09 13:36:47;;;;;;;30.20;17.03;;;;;;;;;;5028023;28;20544;-60
2021/01/09 13:39:14;;;;;;;27.37;17.53;;;;;;;;;;5034130;28;20220;-60
2021/01/09 13:41:40;;;;;;;21.27;14.97;;;;;;;;;;5030233;28;20231;-59
2021/01/09 13:44:09;;;;;;;36.50;22.67;;;;;;;;;;5025961;28;20540;-60
2021/01/09 13:46:35;;;;;;;20.83;14.87;;;;;;;;;;5025582;28;20539;-60
2021/01/09 13:49:03;;;;;;;23.17;16.83;;;;;;;;;;5030179;28;20502;-60
2021/01/09 13:51:30;;;;;;;22.17;15.33;;;;;;;;;;5025083;28;20239;-60
2021/01/09 13:53:56;;;;;;;22.23;15.10;;;;;;;;;;5030193;28;20548;-59
2021/01/09 13:56:45;;;;;;;22.57;14.90;;;;;;;;;;5033037;28;20454;-59
2021/01/09 13:59:14;;;;;;;17.93;13.20;;;;;;;;;;5031189;28;20469;-59
2021/01/09 14:01:40;;;;;;;16.00;12.07;;;;;;;;;;5026034;28;20460;-59
2021/01/09 14:04:05;;;;;;;20.60;13.00;;;;;;;;;;5025553;28;20568;-60
2021/01/09 14:06:31;;;;;;;17.50;11.73;;;;;;;;;;5031676;28;20234;-60
2021/01/09 14:08:56;;;;;;;19.50;14.07;;;;;;;;;;5029789;28;20618;-60
2021/01/09 14:11:23;;;;;;;30.80;19.57;;;;;;;;;;5023859;28;20524;-59
2021/01/09 14:13:50;;;;;;;19.60;14.57;;;;;;;;;;5025597;28;20329;-59
2021/01/09 14:16:25;;;;;;;17.17;11.83;;;;;;;;;;5033813;28;20469;-59
2021/01/09 14:18:50;;;;;;;16.13;12.70;;;;;;;;;;5025263;28;20465;-59
2021/01/09 14:21:17;;;;;;;15.70;11.57;;;;;;;;;;5028436;28;20532;-59
2021/01/09 14:23:42;;;;;;;16.10;12.17;;;;;;;;;;5030695;28;20219;-59
2021/01/09 14:26:08;;;;;;;16.17;12.73;;;;;;;;;;5023209;28;20982;-60
2021/01/09 14:28:33;;;;;;;16.90;11.13;;;;;;;;;;5024158;28;20322;-59
2021/01/09 14:30:58;;;;;;;14.10;9.77;;;;;;;;;;5030862;28;20720;-60